Time;durP1;ratioP1;P1;durP2;ratioP2;P2;SDS_P1;SDS_P2;PMS_P1;PMS_P2;Temp;Humidity;BMP_temperature;BMP_pressure;BME280_temperature;BME280_humidity;BME280_pressure;Samples;Min_cycle;Max_cycle;Signal;HPM_P1;HPM_P2
2022/07/01 00:01:47;;;;;;;6.00;1.70;;;19.40;96.70;;;;;;4943116;28;98801;-74
2022/07/01 00:04:14;;;;;;;4.68;1.67;;;19.40;96.80;;;;;;4946380;28;99435;-74
2022/07/01 00:06:41;;;;;;;4.07;1.40;;;19.30;96.80;;;;;;4947804;28;97773;-74
2022/07/01 00:09:08;;;;;;;4.07;2.28;;;19.40;96.80;;;;;;4942420;28;99295;-74
2022/07/01 00:11:36;;;;;;;5.10;1.90;;;19.30;96.80;;;;;;4942667;28;101541;-74
2022/07/01 00:14:03;;;;;;;4.97;1.85;;;19.30;96.90;;;;;;4928870;28;99908;-74
2022/07/01 00:16:30;;;;;;;6.40;2.75;;;19.30;97.00;;;;;;4939711;28;98976;-74
2022/07/01 00:18:57;;;;;;;4.80;1.75;;;19.30;97.00;;;;;;4942861;28;99218;-74
2022/07/01 00:21:24;;;;;;;4.07;1.50;;;19.20;97.10;;;;;;4941754;28;99548;-74
2022/07/01 00:23:51;;;;;;;4.75;1.52;;;19.20;97.20;;;;;;4941273;28;98996;-74
2022/07/01 00:26:18;;;;;;;2.97;2.17;;;19.20;97.30;;;;;;4952051;28;98674;-74
2022/07/01 00:28:45;;;;;;;3.13;1.90;;;19.20;97.40;;;;;;4949041;28;99253;-74
2022/07/01 00:31:12;;;;;;;4.55;1.73;;;19.20;97.30;;;;;;4946105;28;99073;-74
2022/07/01 00:33:39;;;;;;;4.82;3.05;;;19.20;97.40;;;;;;4951719;28;98805;-74
2022/07/01 00:36:06;;;;;;;4.22;2.58;;;19.20;97.40;;;;;;4942743;28;98577;-74
2022/07/01 00:38:33;;;;;;;5.35;3.58;;;19.20;97.50;;;;;;4944336;28;100081;-74
2022/07/01 00:41:00;;;;;;;3.67;1.52;;;19.20;97.50;;;;;;4945005;28;112725;-74
2022/07/01 00:43:27;;;;;;;2.63;1.17;;;19.20;97.50;;;;;;4943493;28;98511;-74
2022/07/01 00:46:14;;;;;;;2.75;1.65;;;19.20;97.50;;;;;;4954041;28;100092;-74
2022/07/01 00:48:46;;;;;;;2.88;1.30;;;19.20;97.70;;;;;;4943940;28;99306;-74
2022/07/01 00:51:13;;;;;;;3.22;1.08;;;19.20;97.70;;;;;;4947261;28;99052;-74
2022/07/01 00:53:40;;;;;;;2.63;2.10;;;19.20;97.80;;;;;;4958681;28;99522;-74
2022/07/01 00:56:07;;;;;;;4.53;1.92;;;19.10;97.70;;;;;;4937405;28;97791;-74
2022/07/01 00:58:34;;;;;;;4.22;1.55;;;19.10;97.80;;;;;;4948516;28;99213;-74
2022/07/01 01:01:01;;;;;;;4.93;1.50;;;19.10;97.80;;;;;;4950631;28;101588;-74
2022/07/01 01:03:30;;;;;;;2.88;2.67;;;19.10;97.80;;;;;;4952540;28;99247;-74
2022/07/01 01:05:57;;;;;;;2.05;1.40;;;19.20;98.20;;;;;;4945086;28;99194;-74
2022/07/01 01:08:27;;;;;;;2.45;1.50;;;19.20;98.00;;;;;;4936422;28;101732;-74
2022/07/01 01:10:55;;;;;;;1.88;1.20;;;19.20;98.00;;;;;;4940507;28;101618;-74
2022/07/01 01:13:22;;;;;;;3.65;2.70;;;19.20;98.00;;;;;;4945469;28;98635;-74
2022/07/01 01:15:49;;;;;;;4.65;2.28;;;19.20;98.20;;;;;;4946348;28;98567;-74
2022/07/01 01:18:16;;;;;;;2.55;1.75;;;19.20;98.40;;;;;;4944009;28;99290;-74
2022/07/01 01:20:43;;;;;;;1.58;1.38;;;19.20;98.60;;;;;;4951731;28;99512;-74
2022/07/01 01:23:10;;;;;;;3.03;2.60;;;19.20;98.70;;;;;;4953257;28;98493;-74
2022/07/01 01:25:37;;;;;;;2.58;1.08;;;19.10;98.60;;;;;;4935191;28;98605;-74
2022/07/01 01:28:04;;;;;;;1.75;1.20;;;19.20;98.50;;;;;;4945538;28;100053;-74
2022/07/01 01:30:31;;;;;;;3.35;1.30;;;19.10;98.50;;;;;;4945391;28;101006;-74
2022/07/01 01:32:58;;;;;;;1.52;1.20;;;19.10;98.40;;;;;;4940735;28;98464;-74
2022/07/01 01:35:25;;;;;;;2.15;1.85;;;19.10;98.30;;;;;;4929063;28;98463;-74
2022/07/01 01:37:52;;;;;;;1.63;1.45;;;19.00;98.40;;;;;;4945498;28;101930;-74
2022/07/01 01:40:19;;;;;;;2.10;0.70;;;19.00;98.40;;;;;;4946110;28;99166;-74
2022/07/01 01:42:46;;;;;;;2.45;2.25;;;19.00;98.30;;;;;;4930624;28;98599;-74
2022/07/01 01:45:13;;;;;;;2.67;1.92;;;19.00;98.20;;;;;;4949555;28;97794;-74
2022/07/01 01:47:41;;;;;;;2.10;0.90;;;19.00;98.10;;;;;;4946312;28;99239;-74
2022/07/01 01:50:09;;;;;;;2.95;2.45;;;19.00;98.10;;;;;;4950180;28;101561;-74
2022/07/01 01:52:38;;;;;;;2.85;1.60;;;18.90;98.20;;;;;;4935770;28;102920;-74
2022/07/01 01:55:06;;;;;;;2.70;2.40;;;18.90;98.20;;;;;;4952124;28;98647;-74
2022/07/01 01:57:33;;;;;;;1.05;0.90;;;18.90;98.30;;;;;;4945405;28;99226;-74
2022/07/01 02:00:00;;;;;;;2.88;0.95;;;18.90;98.30;;;;;;4941622;28;99619;-74
2022/07/01 02:02:37;;;;;;;2.17;1.63;;;18.90;98.40;;;;;;4941992;28;98580;-74
2022/07/01 02:05:07;;;;;;;3.20;1.13;;;18.90;98.40;;;;;;4927248;28;99436;-74
2022/07/01 02:07:35;;;;;;;1.85;1.70;;;18.90;98.50;;;;;;4952325;28;101963;-74
2022/07/01 02:10:02;;;;;;;2.72;1.35;;;18.80;98.60;;;;;;4943484;28;99077;-74
2022/07/01 02:12:29;;;;;;;3.13;2.72;;;18.90;98.50;;;;;;4940624;28;98697;-74
2022/07/01 02:14:56;;;;;;;2.58;2.38;;;18.90;98.40;;;;;;4945794;28;98575;-74
2022/07/01 02:17:25;;;;;;;3.30;1.40;;;18.80;98.50;;;;;;4949367;28;100596;-74
2022/07/01 02:19:52;;;;;;;2.92;1.77;;;18.80;98.50;;;;;;4942886;28;99737;-74
2022/07/01 02:22:19;;;;;;;3.70;1.05;;;18.80;98.60;;;;;;4945205;28;98442;-74
2022/07/01 02:24:46;;;;;;;3.45;1.45;;;18.80;98.70;;;;;;4943282;28;98557;-74
2022/07/01 02:27:13;;;;;;;4.10;0.90;;;18.80;98.70;;;;;;4940722;28;99857;-74
2022/07/01 02:29:41;;;;;;;3.10;2.35;;;18.80;98.70;;;;;;4943550;28;99357;-74
2022/07/01 02:32:08;;;;;;;2.28;1.65;;;18.80;99.00;;;;;;4944171;28;98593;-74
2022/07/01 02:34:35;;;;;;;3.38;1.02;;;18.70;98.70;;;;;;4948756;28;98188;-74
2022/07/01 02:37:03;;;;;;;3.15;1.85;;;18.70;98.80;;;;;;4947057;28;99324;-74
2022/07/01 02:39:31;;;;;;;3.08;2.25;;;18.70;98.80;;;;;;4929338;28;112020;-74
2022/07/01 02:44:44;;;;;;;1.65;1.50;;;18.60;98.90;;;;;;4947257;28;98989;-74
2022/07/01 02:47:11;;;;;;;3.30;3.10;;;18.60;99.30;;;;;;4940624;28;99764;-74
2022/07/01 02:49:39;;;;;;;2.70;2.58;;;18.50;99.00;;;;;;4951489;28;101546;-74
2022/07/01 02:52:06;;;;;;;4.30;1.80;;;18.50;99.00;;;;;;4945792;28;98564;-74
2022/07/01 02:54:33;;;;;;;3.47;3.25;;;18.40;99.10;;;;;;4942292;28;99297;-74
2022/07/01 02:57:01;;;;;;;3.85;2.58;;;18.40;99.20;;;;;;4943749;28;99495;-74
2022/07/01 02:59:28;;;;;;;2.15;1.70;;;18.30;99.20;;;;;;4949904;28;100107;-74
2022/07/01 03:01:55;;;;;;;3.00;2.80;;;18.30;99.20;;;;;;4943138;28;100532;-74
2022/07/01 03:04:23;;;;;;;2.85;2.40;;;18.30;99.20;;;;;;4943022;28;98520;-74
2022/07/01 03:06:50;;;;;;;2.00;1.80;;;18.20;99.20;;;;;;4940052;28;100189;-74
2022/07/01 03:09:17;;;;;;;3.38;3.25;;;18.20;99.20;;;;;;4942726;28;99816;-74
2022/07/01 03:11:43;;;;;;;1.90;1.50;;;18.20;99.30;;;;;;4946422;28;98513;-74
2022/07/01 03:14:10;;;;;;;2.83;2.63;;;18.20;99.30;;;;;;4941085;28;98692;-73
2022/07/01 03:16:37;;;;;;;2.15;1.95;;;18.10;99.40;;;;;;4940508;28;99357;-74
2022/07/01 03:19:05;;;;;;;1.95;1.70;;;18.10;99.40;;;;;;4946554;28;99022;-74
2022/07/01 03:21:32;;;;;;;3.40;2.95;;;18.10;99.40;;;;;;4948613;28;98580;-74
2022/07/01 03:23:59;;;;;;;2.65;2.40;;;18.00;99.60;;;;;;4937338;28;97928;-74
2022/07/01 03:26:26;;;;;;;2.05;1.83;;;18.00;99.60;;;;;;4945754;28;100045;-74
2022/07/01 03:28:53;;;;;;;2.42;2.20;;;17.90;99.60;;;;;;4939554;28;116498;-74
2022/07/01 03:31:20;;;;;;;3.25;2.97;;;17.90;99.70;;;;;;4949171;28;99543;-74
2022/07/01 03:33:47;;;;;;;2.85;2.30;;;17.90;99.80;;;;;;4941512;28;98670;-74
2022/07/01 03:36:14;;;;;;;4.57;2.08;;;18.00;99.80;;;;;;4914335;28;100490;-73
2022/07/01 03:38:43;;;;;;;3.78;3.40;;;18.00;99.80;;;;;;4947340;28;98785;-74
2022/07/01 03:41:10;;;;;;;3.03;2.72;;;17.90;99.80;;;;;;4946515;28;99231;-74
2022/07/01 03:43:36;;;;;;;3.30;2.28;;;17.90;99.80;;;;;;4940229;28;98579;-74
2022/07/01 03:46:03;;;;;;;3.13;2.85;;;18.00;99.80;;;;;;4942194;28;102040;-74
2022/07/01 03:48:30;;;;;;;4.10;3.45;;;18.00;99.80;;;;;;4943368;28;99297;-73
2022/07/01 03:50:57;;;;;;;4.30;3.50;;;18.00;99.80;;;;;;4939239;28;98457;-74
2022/07/01 03:56:10;;;;;;;4.45;3.40;;;18.00;99.80;;;;;;4945764;28;100182;-74
2022/07/01 03:58:37;;;;;;;5.05;4.65;;;18.00;99.90;;;;;;4946538;28;99830;-74
2022/07/01 04:01:04;;;;;;;4.47;4.07;;;18.00;99.80;;;;;;4946547;28;98533;-74
2022/07/01 04:03:31;;;;;;;4.50;3.97;;;18.10;99.80;;;;;;4947050;28;98496;-73
2022/07/01 04:05:58;;;;;;;5.85;3.70;;;18.10;99.80;;;;;;4945469;28;101837;-73
2022/07/01 04:08:25;;;;;;;5.13;4.03;;;18.10;99.80;;;;;;4941629;28;101327;-74
2022/07/01 04:10:54;;;;;;;5.40;4.90;;;18.10;99.80;;;;;;4937126;28;102837;-74
2022/07/01 04:13:21;;;;;;;5.40;4.90;;;18.10;99.80;;;;;;4942799;28;98590;-74
2022/07/01 04:15:59;;;;;;;5.97;5.38;;;18.20;99.80;;;;;;4927658;28;100321;-74
2022/07/01 04:18:27;;;;;;;7.65;6.97;;;18.20;99.90;;;;;;4948285;28;99079;-74
2022/07/01 04:23:40;;;;;;;12.02;10.93;;;18.20;99.90;;;;;;4949679;28;98493;-74
2022/07/01 04:26:07;;;;;;;13.10;11.77;;;18.20;99.80;;;;;;4952257;28;99223;-74
2022/07/01 04:28:54;;;;;;;14.45;11.65;;;18.20;99.70;;;;;;4948035;28;102180;-74
2022/07/01 04:31:22;;;;;;;12.70;11.50;;;18.20;99.70;;;;;;4935584;28;99618;-74
2022/07/01 04:33:50;;;;;;;12.10;10.82;;;18.30;99.70;;;;;;4944367;28;98540;-74
2022/07/01 04:36:17;;;;;;;13.00;11.80;;;18.30;99.70;;;;;;4945735;28;99318;-74
2022/07/01 04:38:45;;;;;;;14.23;12.07;;;18.30;99.70;;;;;;4943334;28;101750;-74
2022/07/01 04:43:57;;;;;;;16.42;14.65;;;18.30;99.60;;;;;;4946244;28;98556;-74
2022/07/01 04:46:24;;;;;;;16.10;14.07;;;18.30;99.50;;;;;;4950431;28;101114;-74
2022/07/01 04:48:51;;;;;;;16.02;13.35;;;18.30;99.40;;;;;;4943182;28;99723;-73
2022/07/01 04:51:18;;;;;;;16.27;14.70;;;18.30;99.40;;;;;;4946023;28;98537;-74
2022/07/01 04:53:46;;;;;;;20.52;14.73;;;18.30;99.30;;;;;;4942109;28;98596;-74
2022/07/01 04:56:13;;;;;;;17.40;15.55;;;18.30;99.30;;;;;;4951462;28;99456;-74
2022/07/01 04:58:40;;;;;;;18.50;15.23;;;18.40;99.30;;;;;;4944341;28;99002;-74
2022/07/01 05:01:07;;;;;;;20.85;17.90;;;18.40;99.30;;;;;;4948102;28;100734;-74
2022/07/01 05:03:34;;;;;;;20.70;18.05;;;18.40;99.20;;;;;;4947271;28;97816;-76
2022/07/01 05:06:01;;;;;;;18.63;16.58;;;18.40;99.20;;;;;;4943936;28;99429;-76
2022/07/01 05:08:28;;;;;;;20.48;17.38;;;18.40;99.10;;;;;;4933260;28;101926;-76
2022/07/01 05:10:55;;;;;;;20.95;18.23;;;18.50;99.10;;;;;;4941046;28;101983;-76
2022/07/01 05:13:23;;;;;;;20.52;15.88;;;18.50;99.00;;;;;;4944812;28;98462;-76
2022/07/01 05:15:50;;;;;;;23.90;17.05;;;18.50;99.20;;;;;;4945706;28;99241;-76
2022/07/01 05:23:47;;;;;;;20.17;17.17;;;18.60;99.20;;;;;;4950245;28;98607;-74
2022/07/01 05:26:17;;;;;;;21.52;17.55;;;18.60;99.10;;;;;;4943982;28;104789;-74
2022/07/01 05:28:47;;;;;;;22.50;19.52;;;18.70;99.00;;;;;;4946736;28;99016;-74
2022/07/01 05:31:14;;;;;;;20.67;18.35;;;18.70;98.90;;;;;;4941089;28;98718;-74
2022/07/01 05:33:42;;;;;;;23.50;20.70;;;18.70;98.80;;;;;;4944799;28;99125;-74
2022/07/01 05:36:09;;;;;;;23.05;19.08;;;18.80;98.80;;;;;;4945231;28;102629;-74
2022/07/01 05:38:37;;;;;;;24.48;18.17;;;18.90;98.70;;;;;;4946844;28;99954;-74
2022/07/01 05:41:05;;;;;;;22.73;20.35;;;18.90;98.50;;;;;;4940547;28;99115;-74
2022/07/01 05:43:32;;;;;;;24.48;20.05;;;19.00;98.30;;;;;;4944445;28;98698;-74
2022/07/01 05:46:00;;;;;;;21.13;18.88;;;19.00;98.20;;;;;;4949557;28;100839;-74
2022/07/01 05:48:27;;;;;;;21.63;19.33;;;19.10;98.10;;;;;;4944003;28;99130;-74
2022/07/01 05:50:54;;;;;;;23.05;19.10;;;19.20;98.00;;;;;;4951096;28;99298;-74
2022/07/01 05:53:22;;;;;;;21.27;17.90;;;19.30;97.90;;;;;;4950961;28;98596;-74
2022/07/01 05:55:50;;;;;;;22.30;19.30;;;19.40;97.80;;;;;;4943174;28;99367;-74
2022/07/01 05:58:17;;;;;;;22.67;19.90;;;19.50;97.60;;;;;;4947007;28;99185;-74
2022/07/01 06:00:44;;;;;;;21.35;19.05;;;19.60;97.40;;;;;;4943716;28;99281;-74
2022/07/01 06:03:13;;;;;;;22.90;19.30;;;19.70;97.20;;;;;;4948853;28;98631;-74
2022/07/01 06:05:41;;;;;;;19.70;17.17;;;19.80;97.00;;;;;;4946776;28;111487;-74
2022/07/01 06:08:09;;;;;;;21.48;19.20;;;19.90;97.00;;;;;;4939575;28;99111;-74
2022/07/01 06:10:36;;;;;;;22.33;19.77;;;20.00;96.80;;;;;;4943721;28;98602;-74
2022/07/01 06:13:04;;;;;;;23.45;21.02;;;20.00;96.70;;;;;;4940854;28;99153;-74
2022/07/01 06:15:31;;;;;;;22.15;19.70;;;20.00;96.60;;;;;;4940894;28;99225;-74
2022/07/01 06:17:58;;;;;;;23.60;21.20;;;20.10;96.40;;;;;;4944133;28;101793;-74
2022/07/01 06:20:25;;;;;;;23.73;20.75;;;20.10;96.30;;;;;;4951624;28;99032;-74
2022/07/01 06:22:52;;;;;;;22.70;20.35;;;20.10;96.10;;;;;;4950560;28;98517;-74
2022/07/01 06:25:19;;;;;;;25.20;21.88;;;20.20;96.10;;;;;;4934498;28;102586;-74
2022/07/01 06:27:46;;;;;;;23.73;21.30;;;20.20;95.90;;;;;;4941603;28;99704;-74
2022/07/01 06:30:14;;;;;;;21.90;19.67;;;20.20;95.80;;;;;;4945537;28;98890;-74
2022/07/01 06:32:41;;;;;;;24.88;22.25;;;20.30;95.90;;;;;;4924344;28;98859;-74
2022/07/01 06:35:08;;;;;;;23.33;21.13;;;20.40;95.80;;;;;;4925967;28;99325;-74
2022/07/01 06:37:36;;;;;;;23.05;20.85;;;20.50;95.70;;;;;;4932800;28;101895;-74
2022/07/01 06:40:05;;;;;;;23.48;21.13;;;20.60;95.60;;;;;;4934931;28;98602;-74
2022/07/01 06:42:33;;;;;;;22.73;20.38;;;20.70;95.50;;;;;;4942652;28;98271;-74
2022/07/01 06:45:00;;;;;;;23.55;21.15;;;20.80;95.40;;;;;;4944160;28;100490;-74
2022/07/01 06:47:27;;;;;;;22.02;19.75;;;20.90;95.10;;;;;;4946171;28;99010;-74
2022/07/01 06:49:54;;;;;;;24.88;22.13;;;21.10;95.00;;;;;;4935290;28;100280;-74
2022/07/01 06:52:24;;;;;;;21.45;19.42;;;21.20;94.70;;;;;;4944420;28;98601;-74
2022/07/01 06:54:51;;;;;;;21.55;19.35;;;21.30;94.50;;;;;;4944216;28;99311;-74
2022/07/01 06:57:18;;;;;;;22.45;20.30;;;21.50;94.30;;;;;;4942487;28;100230;-74
2022/07/01 06:59:45;;;;;;;21.65;19.73;;;21.60;94.10;;;;;;4932567;28;98592;-74
2022/07/01 07:02:12;;;;;;;22.13;19.77;;;21.70;93.80;;;;;;4940194;28;98545;-74
2022/07/01 07:04:39;;;;;;;21.48;19.27;;;21.80;93.50;;;;;;4943716;28;99234;-74
2022/07/01 07:07:25;;;;;;;19.20;17.20;;;22.00;93.30;;;;;;4942713;28;99047;-74
2022/07/01 07:09:52;;;;;;;22.38;20.40;;;22.20;93.00;;;;;;4934657;28;98645;-74
2022/07/01 07:12:19;;;;;;;22.20;20.20;;;22.40;92.60;;;;;;4950173;28;99189;-74
2022/07/01 07:14:46;;;;;;;19.42;17.73;;;22.60;92.30;;;;;;4942487;28;100121;-74
2022/07/01 07:17:13;;;;;;;18.08;16.38;;;22.70;92.10;;;;;;4942215;28;99903;-74
2022/07/01 07:19:40;;;;;;;22.05;19.88;;;22.70;91.90;;;;;;4949736;28;98564;-74
2022/07/01 07:22:35;;;;;;;19.52;17.73;;;22.70;91.60;;;;;;4944966;28;98488;-74
2022/07/01 07:25:02;;;;;;;20.80;18.90;;;22.60;91.70;;;;;;4944311;28;99900;-74
2022/07/01 07:27:29;;;;;;;21.13;19.23;;;22.70;91.60;;;;;;4938863;28;99299;-74
2022/07/01 07:30:00;;;;;;;24.20;21.90;;;22.60;91.60;;;;;;4945089;28;99289;-74
2022/07/01 07:32:27;;;;;;;20.10;18.30;;;22.60;91.40;;;;;;4947562;28;97780;-74
2022/07/01 07:34:54;;;;;;;21.58;19.42;;;22.60;91.30;;;;;;4942327;28;101795;-74
2022/07/01 07:37:21;;;;;;;22.63;20.52;;;22.70;91.30;;;;;;4940386;28;99112;-74
2022/07/01 07:39:48;;;;;;;21.88;20.08;;;22.80;91.30;;;;;;4930953;28;99223;-74
2022/07/01 07:42:15;;;;;;;21.77;19.77;;;22.90;91.20;;;;;;4945765;28;99531;-74
2022/07/01 07:44:42;;;;;;;23.02;20.90;;;23.00;91.00;;;;;;4939854;28;99229;-74
2022/07/01 07:47:09;;;;;;;22.92;20.80;;;23.10;90.80;;;;;;4939263;28;98913;-74
2022/07/01 07:49:35;;;;;;;20.65;18.75;;;23.20;90.50;;;;;;4943809;28;98649;-74
2022/07/01 07:52:03;;;;;;;21.38;19.48;;;23.30;90.30;;;;;;4942526;28;99116;-74
2022/07/01 07:54:30;;;;;;;23.33;21.23;;;23.50;90.20;;;;;;4943261;28;99238;-74
2022/07/01 07:56:57;;;;;;;23.42;21.45;;;23.50;90.10;;;;;;4934129;28;99907;-74
2022/07/01 07:59:24;;;;;;;21.58;19.67;;;23.60;90.00;;;;;;4945310;28;98988;-74
2022/07/01 08:01:51;;;;;;;21.02;19.17;;;23.60;89.60;;;;;;4942414;28;98545;-74
2022/07/01 08:04:17;;;;;;;22.95;20.77;;;23.70;89.20;;;;;;4937077;28;103091;-74
2022/07/01 08:06:44;;;;;;;21.45;19.52;;;23.80;89.20;;;;;;4948800;28;100014;-74
2022/07/01 08:09:11;;;;;;;18.65;17.05;;;23.90;88.60;;;;;;4926564;28;98543;-74
2022/07/01 08:11:38;;;;;;;18.58;16.90;;;24.00;88.20;;;;;;4938198;28;98572;-74
2022/07/01 08:14:05;;;;;;;16.17;14.85;;;24.00;87.70;;;;;;4941830;28;100855;-74
2022/07/01 08:16:32;;;;;;;19.83;17.85;;;24.00;87.50;;;;;;4945180;28;99017;-74
2022/07/01 08:19:00;;;;;;;20.67;18.98;;;24.20;87.20;;;;;;4940341;28;98596;-74
2022/07/01 08:21:26;;;;;;;19.58;17.75;;;24.30;86.90;;;;;;4927663;28;98110;-74
2022/07/01 08:23:53;;;;;;;20.73;18.58;;;24.30;86.80;;;;;;4941605;28;102113;-74
2022/07/01 08:26:20;;;;;;;18.92;17.42;;;24.40;86.50;;;;;;4943150;28;99100;-74
2022/07/01 08:28:47;;;;;;;20.13;18.20;;;24.40;86.50;;;;;;4937022;28;99989;-74
2022/07/01 08:31:14;;;;;;;17.65;16.10;;;24.40;86.20;;;;;;4944547;28;98661;-74
2022/07/01 08:33:42;;;;;;;19.50;17.80;;;24.50;86.10;;;;;;4936702;28;112318;-74
2022/07/01 08:36:11;;;;;;;17.90;16.40;;;24.50;85.70;;;;;;4944939;28;98799;-74
2022/07/01 08:38:38;;;;;;;17.77;16.25;;;24.60;85.50;;;;;;4947240;28;99107;-74
2022/07/01 08:41:05;;;;;;;17.88;15.57;;;24.70;85.10;;;;;;4939872;28;98512;-74
2022/07/01 08:43:33;;;;;;;18.60;16.77;;;24.70;85.10;;;;;;4936890;28;101195;-74
2022/07/01 08:46:03;;;;;;;18.33;16.50;;;24.80;85.20;;;;;;4943918;28;99858;-74
2022/07/01 08:48:31;;;;;;;17.60;15.93;;;24.80;84.50;;;;;;4945271;28;98564;-74
2022/07/01 08:50:58;;;;;;;17.80;16.20;;;24.90;84.30;;;;;;4942207;28;98543;-74
2022/07/01 08:53:25;;;;;;;16.30;14.80;;;25.10;84.10;;;;;;4924750;28;102465;-75
2022/07/01 08:58:37;;;;;;;12.73;11.48;;;25.30;82.40;;;;;;4943451;28;98631;-75
2022/07/01 09:01:16;;;;;;;11.68;10.68;;;25.50;82.90;;;;;;4946321;28;99075;-75
2022/07/01 09:03:45;;;;;;;14.10;12.77;;;26.40;80.30;;;;;;4944283;28;99419;-75
2022/07/01 09:06:17;;;;;;;11.95;10.95;;;27.00;79.80;;;;;;4944126;28;99392;-75
2022/07/01 09:08:45;;;;;;;10.98;10.07;;;27.60;77.20;;;;;;4942828;28;98677;-75
2022/07/01 09:11:19;;;;;;;11.98;10.88;;;27.80;75.10;;;;;;4945318;28;97913;-75
2022/07/01 09:14:09;;;;;;;9.15;8.35;;;28.10;74.20;;;;;;4942082;28;102066;-75
2022/07/01 09:16:54;;;;;;;10.27;9.27;;;28.50;71.40;;;;;;4934427;28;103169;-76
2022/07/01 09:19:22;;;;;;;11.55;10.35;;;28.40;69.60;;;;;;4930881;28;99944;-75
2022/07/01 09:21:51;;;;;;;10.68;9.55;;;28.20;70.50;;;;;;4919780;28;99841;-75
2022/07/01 09:24:29;;;;;;;10.55;9.43;;;28.30;70.40;;;;;;4916087;28;102102;-72
2022/07/01 09:27:08;;;;;;;8.75;8.05;;;28.50;69.30;;;;;;4925328;28;99201;-72
2022/07/01 09:29:38;;;;;;;8.02;7.22;;;28.50;68.60;;;;;;4909763;28;98649;-75
2022/07/01 09:32:07;;;;;;;9.02;8.18;;;28.40;68.00;;;;;;4928759;28;100055;-73
2022/07/01 09:34:34;;;;;;;11.65;9.13;;;28.30;67.50;;;;;;4924616;28;99373;-74
2022/07/01 09:37:03;;;;;;;10.63;8.20;;;28.20;67.80;;;;;;4922004;28;101832;-73
2022/07/01 09:39:30;;;;;;;8.13;7.32;;;28.20;68.10;;;;;;4927362;28;99330;-73
2022/07/01 09:42:04;;;;;;;8.35;7.45;;;28.20;67.30;;;;;;4932620;28;99435;-73
2022/07/01 09:44:31;;;;;;;10.63;7.15;;;28.20;66.20;;;;;;4919420;28;105411;-73
2022/07/01 09:46:58;;;;;;;8.48;7.57;;;28.20;66.20;;;;;;4928760;28;99759;-73
2022/07/01 09:49:25;;;;;;;8.50;7.65;;;28.20;65.40;;;;;;4923243;28;100000;-76
2022/07/01 09:51:52;;;;;;;7.78;7.03;;;28.00;65.80;;;;;;4931345;28;98677;-77
2022/07/01 09:54:20;;;;;;;9.88;7.82;;;28.00;66.60;;;;;;4925451;28;99353;-74
2022/07/01 09:56:47;;;;;;;8.52;6.32;;;27.90;66.30;;;;;;4924062;28;102394;-75
2022/07/01 09:59:16;;;;;;;6.75;5.82;;;27.80;66.50;;;;;;4932469;28;98779;-74
2022/07/01 10:06:35;;;;;;;7.00;6.30;;;27.80;65.60;;;;;;4931513;28;98998;-75
2022/07/01 10:09:23;;;;;;;8.38;7.50;;;27.70;65.50;;;;;;4926519;28;101503;-75
2022/07/01 10:12:03;;;;;;;6.70;6.10;;;27.80;65.80;;;;;;4927252;28;100305;-75
2022/07/01 10:14:31;;;;;;;11.75;8.40;;;27.90;65.80;;;;;;4916166;28;99081;-74
2022/07/01 10:16:58;;;;;;;10.98;7.82;;;27.80;65.80;;;;;;4932606;28;100370;-74
2022/07/01 10:19:26;;;;;;;8.23;6.50;;;27.80;66.10;;;;;;4914928;28;102125;-74
2022/07/01 10:21:56;;;;;;;7.05;6.35;;;27.80;65.70;;;;;;4910676;28;98533;-74
2022/07/01 10:24:25;;;;;;;10.27;7.45;;;27.90;65.40;;;;;;4935367;28;100414;-75
2022/07/01 10:26:58;;;;;;;8.82;6.45;;;27.90;65.70;;;;;;4933800;28;109638;-75
2022/07/01 10:29:32;;;;;;;7.32;6.13;;;28.00;65.90;;;;;;4935577;28;99834;-74
2022/07/01 10:32:08;;;;;;;6.85;5.82;;;28.20;65.10;;;;;;4934575;28;98831;-75
2022/07/01 10:34:40;;;;;;;7.20;5.68;;;28.40;64.80;;;;;;4934271;28;99499;-75
2022/07/01 10:37:10;;;;;;;8.77;6.22;;;28.40;64.40;;;;;;4916019;28;105614;-75
2022/07/01 10:39:57;;;;;;;9.85;6.65;;;28.40;63.80;;;;;;4926842;28;99766;-74
2022/07/01 10:42:32;;;;;;;9.43;5.97;;;28.60;63.00;;;;;;4933760;28;100565;-75
2022/07/01 10:45:06;;;;;;;8.98;5.50;;;28.50;63.80;;;;;;4933829;28;98583;-75
2022/07/01 10:47:33;;;;;;;10.70;5.80;;;28.40;63.80;;;;;;4931872;28;101969;-75
2022/07/01 10:50:03;;;;;;;7.75;5.32;;;28.30;63.00;;;;;;4932106;28;99005;-76
2022/07/01 10:52:31;;;;;;;8.27;5.18;;;28.30;63.00;;;;;;4930464;28;98645;-75
2022/07/01 10:55:00;;;;;;;9.07;5.35;;;28.40;63.60;;;;;;4932235;28;97905;-75
2022/07/01 10:57:41;;;;;;;6.35;5.05;;;28.30;62.70;;;;;;4933354;28;99413;-75
2022/07/01 11:00:08;;;;;;;9.65;5.40;;;28.30;62.60;;;;;;4933218;28;98953;-76
2022/07/01 11:02:37;;;;;;;5.57;4.93;;;28.30;62.80;;;;;;4916978;28;100301;-76
2022/07/01 11:05:14;;;;;;;5.95;4.40;;;28.40;62.40;;;;;;4933199;28;98531;-76
2022/07/01 11:07:46;;;;;;;5.70;4.22;;;28.40;62.50;;;;;;4926978;28;99465;-76
2022/07/01 11:10:15;;;;;;;6.50;4.60;;;28.30;62.10;;;;;;4915865;28;98903;-76
2022/07/01 11:12:48;;;;;;;5.93;4.38;;;28.40;61.80;;;;;;4917296;28;99165;-76
2022/07/01 11:15:17;;;;;;;5.95;4.18;;;28.40;61.40;;;;;;4933314;28;98555;-75
2022/07/01 11:17:48;;;;;;;5.05;4.10;;;28.60;60.90;;;;;;4933192;28;99493;-76
2022/07/01 11:20:16;;;;;;;4.43;4.00;;;28.60;61.30;;;;;;4932602;28;102786;-76
2022/07/01 11:22:48;;;;;;;5.88;4.00;;;28.70;61.50;;;;;;4931077;28;99712;-76
2022/07/01 11:25:17;;;;;;;4.35;3.95;;;28.80;61.20;;;;;;4934011;28;100453;-75
2022/07/01 11:27:49;;;;;;;6.53;3.80;;;28.90;61.20;;;;;;4932555;28;100971;-77
2022/07/01 11:30:18;;;;;;;4.75;4.30;;;29.00;60.30;;;;;;4931848;28;99980;-73
2022/07/01 11:32:53;;;;;;;6.10;3.60;;;29.00;60.40;;;;;;4930719;28;98630;-75
2022/07/01 11:41:09;;;;;;;6.65;4.10;;;28.90;60.10;;;;;;4931411;28;101542;-74
2022/07/01 11:43:38;;;;;;;5.18;3.53;;;28.80;59.80;;;;;;4928137;28;99489;-74
2022/07/01 11:46:06;;;;;;;5.60;3.40;;;28.90;60.00;;;;;;4923539;28;98677;-74
2022/07/01 11:48:47;;;;;;;4.13;3.42;;;28.80;59.40;;;;;;4932855;28;101818;-74
2022/07/01 11:51:21;;;;;;;6.40;3.92;;;28.90;58.50;;;;;;4931973;28;101701;-74
2022/07/01 11:53:51;;;;;;;4.70;3.67;;;28.70;58.50;;;;;;4930368;28;100146;-74
2022/07/01 11:56:29;;;;;;;4.63;3.03;;;28.60;58.80;;;;;;4930877;28;98521;-74
2022/07/01 11:58:57;;;;;;;5.32;2.90;;;28.40;58.80;;;;;;4928699;28;99203;-74
2022/07/01 12:01:32;;;;;;;3.95;2.63;;;28.20;59.20;;;;;;4932421;28;99703;-74
2022/07/01 12:04:02;;;;;;;4.75;2.65;;;28.20;59.30;;;;;;4933157;28;99343;-74
2022/07/01 12:06:30;;;;;;;3.10;2.50;;;28.20;59.50;;;;;;4932175;28;99893;-74
2022/07/01 12:08:57;;;;;;;3.53;2.28;;;28.20;59.80;;;;;;4929507;28;100310;-75
2022/07/01 12:11:27;;;;;;;3.20;2.53;;;28.20;59.60;;;;;;4931597;28;99237;-74
2022/07/01 12:13:56;;;;;;;4.75;2.35;;;28.20;58.50;;;;;;4932683;28;98549;-74
2022/07/01 12:16:24;;;;;;;5.35;2.47;;;28.10;58.50;;;;;;4933464;28;98932;-74
2022/07/01 12:19:00;;;;;;;4.35;2.17;;;28.00;58.80;;;;;;4935285;28;100977;-74
2022/07/01 12:21:29;;;;;;;4.38;2.72;;;28.00;58.70;;;;;;4933848;28;102276;-74
2022/07/01 12:24:03;;;;;;;4.70;2.30;;;27.80;58.80;;;;;;4935064;28;100386;-75
2022/07/01 12:26:30;;;;;;;2.85;2.22;;;27.80;59.40;;;;;;4934380;28;98594;-73
2022/07/01 12:28:57;;;;;;;5.85;2.08;;;27.80;59.30;;;;;;4914744;28;115723;-74
2022/07/01 12:31:24;;;;;;;3.33;1.70;;;27.80;59.00;;;;;;4930498;28;98899;-74
2022/07/01 12:33:52;;;;;;;3.10;1.63;;;27.90;59.10;;;;;;4924451;28;98498;-74
2022/07/01 12:36:19;;;;;;;3.45;1.80;;;27.90;59.30;;;;;;4937124;28;98982;-73
2022/07/01 12:38:59;;;;;;;4.50;1.88;;;27.90;59.70;;;;;;4933669;28;99359;-73
2022/07/01 12:41:33;;;;;;;3.92;2.17;;;27.90;59.80;;;;;;4957454;28;101781;-73
2022/07/01 12:44:25;;;;;;;5.43;2.00;;;27.90;59.40;;;;;;4937400;28;99800;-74
2022/07/01 12:46:52;;;;;;;7.05;2.20;;;28.00;59.00;;;;;;4939379;28;100106;-75
2022/07/01 12:49:24;;;;;;;5.75;1.70;;;28.00;59.40;;;;;;4938537;28;99380;-75
2022/07/01 12:51:52;;;;;;;5.95;1.77;;;28.30;58.60;;;;;;4918523;28;101505;-73
2022/07/01 12:54:38;;;;;;;3.67;2.00;;;28.40;58.20;;;;;;4930809;28;99278;-73
2022/07/01 12:57:05;;;;;;;4.72;2.15;;;28.60;58.00;;;;;;4939245;28;98932;-74
2022/07/01 12:59:32;;;;;;;3.50;1.60;;;28.60;58.30;;;;;;4920642;28;102264;-74
2022/07/01 13:02:01;;;;;;;2.90;1.60;;;28.50;58.40;;;;;;4939191;28;99033;-74
2022/07/01 13:04:29;;;;;;;4.28;1.60;;;28.60;58.90;;;;;;4938238;28;99372;-74
2022/07/01 13:06:56;;;;;;;3.83;1.60;;;28.90;59.10;;;;;;4939804;28;99579;-74
2022/07/01 13:09:23;;;;;;;3.88;1.75;;;29.20;57.30;;;;;;4938120;28;100043;-74
2022/07/01 13:11:50;;;;;;;2.75;1.42;;;29.20;57.30;;;;;;4920599;28;102413;-74
2022/07/01 13:14:17;;;;;;;3.72;1.70;;;29.10;57.60;;;;;;4909452;28;99402;-73